Saturday, October 25, 2014
22:10 UTC
  |  Log In   |  Register Free
Airport Search:

Gainesville Municipal Airport
(KGLE)

FAA data valid effective September 18, 2014 - November 13, 2014 (unless otherwise noted).

 
 
 
 
 
 
 
 
 
 
 
 
 
 

Current Aviation Weather for Gainesville Municipal Airport (KGLE)

The most recent METAR observation for KGLE was updated at: 2113
METAR Summary (Translated METAR)
KGLE
252055Z AUTO 23004KT 10SM CLR 31/15 A3008 RMK AO2 T03060151
KGYI
252055Z AUTO 22005KT 10SM CLR 31/19 A3007 RMK AO2 T03070186
(26.4 nm NE from KGLE)
KDTO
252053Z 19005KT 10SM CLR 31/16 A3005 RMK AO2 SLP169 T03110161 56020
(27 nm SW from KGLE)
TAF
No TAF information found within 50 nm of KGLE
  Airport Weather Conditions for KGLE

 Current Weather at GLE
87° F
Fair
Southwest winds at 4.6 mph
GLE NOAA Radar

Pressure: 30.08 in
Humidity: 39%
Wind: Southwest at 4.6 MPH (4 KT)
Dew Point: 59.2°F
Visibility: 10.00 mi


Airport Weather Forecast for KGLE

Translated METAR and TAF for KGLE
Translated METAR for KGLE (2205 UTC 25 October 2014)
found at http://aviationweather.gov/adds/metars/
 
METAR text: KGLE 252155Z AUTO 20005KT 10SM CLR 31/16 A3007 RMK AO2 T03050156
Conditions at: KGLE (GAINESVILLE , TX, US) observed 2155 UTC 25 October 2014
Temperature: 30.5°C (87°F)
Dewpoint: 15.6°C (60°F) [RH = 41%]
Pressure (altimeter): 30.07 inches Hg (1018.4 mb)
Winds: from the SSW (200 degrees) at 6 MPH (5 knots; 2.6 m/s)
Visibility: 10 or more miles (16+ km)
Ceiling: at least 12,000 feet AGL
Clouds: sky clear below 12,000 feet AGL
Weather: automated observation with no human augmentation;
there may or may not be significant weather present at this time
Translated TAF for KGLE

There is no translated TAF available for this airport

Find All Airport Services Find A Hotel Find A Rental Car Find A Golf Course Find A Restaurant $100 Hamburger



FBO's on the Field
FBO Company Facility Photos Services Transportation Aviation Fuel Prices: Prices include tax
Catering Weather Repair Courtesy Rental Type 100LL JetA JetA+ MOGAS 8087
 
City of Gainesville Municipal Airport

This FBO has not yet been rated
FS: Phillips 66
Last Updated: Oct-25
Login to update fuel prices
SS:
Contact City of Gainesville Municipal AirportMore FBO Information
 
Add another FBO Facility Photos Catering Weather Repair Courtesy Rental Type 100LL JetA JetA+ MOGAS 8087
Services Transportation Aviation Fuel Prices: Prices include tax


model-print
model-print
model-print
model-print